KGUC

Gunnison-Crested Butte Regional Airport

Gunnison, Colorado, USA
METAR KGUC 230156Z AUTO 36006KT 10SM BKN100 OVC110 17/00 A3006 RMK AO2 SLP123 T01720000
Observed Flight Rules
May-23 @ 01:56 UTC (an hour ago) Visual Flight Rules
Wind Visibility Clouds
360° at 6 knots 10 miles
  • Broken at 10,000' AGL
  • Overcast at 11,000' AGL
Temperatures Readings
Current 17°C / 63°F
Dewpoint 0°C / 32°F
Humidity 32%
Altimeter 30.06" Hg
Pressure 1012.3 hPa
Elevation 2339
METAR KGUC 230156Z AUTO 36006KT 10SM BKN100 OVC110 17/00 A3006 RMK AO2 SLP123 T01720000
Observed Flight Rules
May-23 @ 01:56 UTC
(an hour ago)
VFR
Wind Visibility
360° at 6 knots 10 miles
Clouds
  • Broken at 10,000' AGL
  • Overcast at 11,000' AGL
Temperature Dewpoint
17°C / 63°F 0°C / 32°F
Humidity Altimeter Pressure
32% 30.06" Hg 1012.3 hPa